createdAt,value
2022-12-01T00:01:10.689Z,98755.31
2022-12-01T00:03:38.115Z,98750.25
2022-12-01T00:06:09.565Z,98753.63
2022-12-01T00:08:36.302Z,98749.69
2022-12-01T00:11:09.260Z,98745.53
2022-12-01T00:13:36.929Z,98753.19
2022-12-01T00:16:15.088Z,98747.91
2022-12-01T00:18:42.094Z,98751.47
2022-12-01T00:21:16.880Z,98747.63
2022-12-01T00:23:44.744Z,98748.84
2022-12-01T00:26:11.333Z,98745.63
2022-12-01T00:28:37.995Z,98749.94
2022-12-01T00:31:09.483Z,98743.44
2022-12-01T00:33:36.193Z,98738.13
2022-12-01T00:36:03.885Z,98743.91
2022-12-01T00:38:31.587Z,98749.72
2022-12-01T00:40:58.551Z,98744.47
2022-12-01T00:43:25.251Z,98741.06
2022-12-01T00:45:52.439Z,98744.50
2022-12-01T00:48:20.942Z,98741.97
2022-12-01T00:50:48.009Z,98737.94
2022-12-01T00:53:15.211Z,98740.25
2022-12-01T00:55:42.008Z,98749.06
2022-12-01T00:58:08.631Z,98753.75
2022-12-01T01:00:38.753Z,98757.44
2022-12-01T01:03:06.824Z,98740.41
2022-12-01T01:05:38.067Z,98746.22
2022-12-01T01:08:09.528Z,98735.16
2022-12-01T01:10:40.670Z,98745.91
2022-12-01T01:13:07.750Z,98755.94
2022-12-01T01:15:34.949Z,98751.19
2022-12-01T01:18:02.402Z,98752.09
2022-12-01T01:20:29.351Z,98742.75
2022-12-01T01:22:56.114Z,98744.94
2022-12-01T01:25:23.501Z,98745.94
2022-12-01T01:27:50.809Z,98739.81
2022-12-01T01:30:18.463Z,98734.16
2022-12-01T01:32:45.098Z,98736.72
2022-12-01T01:35:12.032Z,98741.75
2022-12-01T01:37:39.612Z,98737.50
2022-12-01T01:40:07.701Z,98739.34
2022-12-01T01:42:34.364Z,98740.81
2022-12-01T01:45:01.043Z,98744.53
2022-12-01T01:47:33.448Z,98741.19
2022-12-01T01:50:09.211Z,98736.09
2022-12-01T01:52:38.932Z,98731.75
2022-12-01T01:55:06.275Z,98742.50
2022-12-01T01:57:34.352Z,98736.66
2022-12-01T02:00:14.218Z,98733.31
2022-12-01T02:02:45.469Z,98738.56
2022-12-01T02:05:17.274Z,98728.91
2022-12-01T02:07:45.570Z,98732.41
2022-12-01T02:10:14.863Z,98733.19
2022-12-01T02:13:00.030Z,98733.13
2022-12-01T02:16:05.613Z,98732.97
2022-12-01T02:19:04.474Z,98727.09
2022-12-01T02:21:55.161Z,98729.28
2022-12-01T02:24:59.014Z,98728.41
2022-12-01T02:27:36.830Z,98722.47
2022-12-01T02:30:19.526Z,98723.88
2022-12-01T02:33:00.096Z,98729.56
2022-12-01T02:35:47.391Z,98728.78
2022-12-01T02:38:20.163Z,98729.22
2022-12-01T02:40:54.333Z,98726.06
2022-12-01T02:43:33.819Z,98718.31
2022-12-01T02:46:18.348Z,98713.66
2022-12-01T02:48:51.564Z,98722.56
2022-12-01T02:51:30.633Z,98715.00
2022-12-01T02:54:00.202Z,98715.84
2022-12-01T02:56:27.285Z,98718.75
2022-12-01T02:58:53.881Z,98712.56
2022-12-01T03:01:32.880Z,98714.50
2022-12-01T03:04:12.957Z,98707.09
2022-12-01T03:06:45.920Z,98708.94
2022-12-01T03:09:21.660Z,98708.75
2022-12-01T03:12:19.462Z,98709.72
2022-12-01T03:15:00.008Z,98705.97
2022-12-01T03:17:35.313Z,98707.25
2022-12-01T03:20:19.532Z,98709.16
2022-12-01T03:23:00.695Z,98704.97
2022-12-01T03:25:29.544Z,98706.91
2022-12-01T03:28:20.643Z,98714.06
2022-12-01T03:30:46.699Z,98706.47
2022-12-01T03:33:21.624Z,98712.72
2022-12-01T03:36:02.094Z,98704.56
2022-12-01T03:38:30.442Z,98711.78
2022-12-01T03:41:02.708Z,98704.72
2022-12-01T03:43:33.905Z,98707.50
2022-12-01T03:46:00.666Z,98709.63
2022-12-01T03:48:28.347Z,98699.03
2022-12-01T03:51:16.215Z,98702.19
2022-12-01T03:53:58.178Z,98706.50
2022-12-01T03:56:30.750Z,98690.38
2022-12-01T03:59:01.351Z,98704.28
2022-12-01T04:01:32.865Z,98703.72
2022-12-01T04:04:09.083Z,98712.09
2022-12-01T04:06:36.294Z,98707.75
2022-12-01T04:09:03.940Z,98710.66
2022-12-01T04:11:49.805Z,98714.13
2022-12-01T04:14:16.457Z,98709.88
2022-12-01T04:16:43.217Z,98716.13
2022-12-01T04:19:12.114Z,98720.72
2022-12-01T04:21:38.818Z,98725.53
2022-12-01T04:24:05.626Z,98718.53
2022-12-01T04:26:36.105Z,98720.44
2022-12-01T04:29:09.271Z,98715.63
2022-12-01T04:31:36.386Z,98710.38
2022-12-01T04:34:03.969Z,98712.50
2022-12-01T04:36:32.364Z,98711.16
2022-12-01T04:38:59.332Z,98726.84
2022-12-01T04:41:26.314Z,98712.16
2022-12-01T04:43:57.522Z,98719.03
2022-12-01T04:46:25.073Z,98720.44
2022-12-01T04:48:52.698Z,98720.06
2022-12-01T04:51:19.619Z,98714.88
2022-12-01T04:53:46.259Z,98716.75
2022-12-01T04:56:12.986Z,98725.31
2022-12-01T04:58:39.758Z,98719.72
2022-12-01T05:01:09.033Z,98725.34
2022-12-01T05:03:49.607Z,98728.16
2022-12-01T05:06:19.336Z,98726.72
2022-12-01T05:08:46.348Z,98732.81
2022-12-01T05:11:14.592Z,98727.53
2022-12-01T05:13:43.539Z,98731.06
2022-12-01T05:16:22.613Z,98729.63
2022-12-01T05:19:13.819Z,98726.28
2022-12-01T05:21:42.212Z,98728.03
2022-12-01T05:24:09.520Z,98731.50
2022-12-01T05:26:36.284Z,98730.34
2022-12-01T05:29:03.477Z,98722.53
2022-12-01T05:31:31.226Z,98731.31
2022-12-01T05:33:57.917Z,98732.63
2022-12-01T05:36:24.778Z,98732.97
2022-12-01T05:38:51.315Z,98731.41
2022-12-01T05:41:18.025Z,98729.28
2022-12-01T05:43:44.828Z,98741.91
2022-12-01T05:46:11.533Z,98736.78
2022-12-01T05:48:38.213Z,98742.97
2022-12-01T05:51:12.794Z,98739.84
2022-12-01T05:53:39.867Z,98742.84
2022-12-01T05:56:07.938Z,98742.78
2022-12-01T05:58:35.333Z,98737.41
2022-12-01T06:01:05.288Z,98740.16
2022-12-01T06:03:32.129Z,98741.81
2022-12-01T06:06:01.883Z,98732.03
2022-12-01T06:08:28.680Z,98739.38
2022-12-01T06:10:56.052Z,98741.94
2022-12-01T06:13:23.599Z,98738.38
2022-12-01T06:15:59.935Z,98738.47
2022-12-01T06:18:27.551Z,98743.72
2022-12-01T06:20:54.446Z,98755.31
2022-12-01T06:23:24.311Z,98747.34
2022-12-01T06:25:54.366Z,98753.91
2022-12-01T06:28:23.189Z,98758.69
2022-12-01T06:30:51.185Z,98768.19
2022-12-01T06:33:18.139Z,98770.75
2022-12-01T06:35:46.418Z,98754.50
2022-12-01T06:38:13.043Z,98766.63
2022-12-01T06:40:39.791Z,98759.69
2022-12-01T06:43:06.972Z,98766.25
2022-12-01T06:45:33.705Z,98770.16
2022-12-01T06:48:00.421Z,98768.09
2022-12-01T06:50:27.126Z,98773.84
2022-12-01T06:52:54.988Z,98768.16
2022-12-01T06:55:21.858Z,98772.56
2022-12-01T06:57:48.757Z,98771.78
2022-12-01T07:00:16.551Z,98777.19
2022-12-01T07:02:43.753Z,98773.06
2022-12-01T07:05:10.410Z,98781.94
2022-12-01T07:07:39.183Z,98784.22
2022-12-01T07:10:06.890Z,98779.97
2022-12-01T07:12:33.962Z,98771.16
2022-12-01T07:15:02.220Z,98783.81
2022-12-01T07:17:29.821Z,98790.06
2022-12-01T07:19:56.768Z,98791.53
2022-12-01T07:22:29.523Z,98782.75
2022-12-01T07:24:59.022Z,98786.28
2022-12-01T07:27:25.660Z,98792.03
2022-12-01T07:29:52.321Z,98800.19
2022-12-01T07:32:18.932Z,98803.19
2022-12-01T07:34:45.869Z,98799.16
2022-12-01T07:37:17.008Z,98810.28
2022-12-01T07:39:43.819Z,98807.59
2022-12-01T07:42:10.434Z,98800.13
2022-12-01T07:44:37.068Z,98792.53
2022-12-01T07:47:03.799Z,98799.19
2022-12-01T07:49:30.446Z,98796.06
2022-12-01T07:51:57.345Z,98797.94
2022-12-01T07:54:25.435Z,98800.34
2022-12-01T07:56:52.178Z,98806.75
2022-12-01T07:59:18.719Z,98808.84
2022-12-01T08:01:46.348Z,98810.84
2022-12-01T08:04:13.276Z,98803.16
2022-12-01T08:06:39.936Z,98799.00
2022-12-01T08:09:06.681Z,98808.53
2022-12-01T08:11:33.894Z,98801.47
2022-12-01T08:14:00.594Z,98795.31
2022-12-01T08:16:27.413Z,98798.72
2022-12-01T08:18:54.424Z,98799.44
2022-12-01T08:21:23.026Z,98796.88
2022-12-01T08:23:54.645Z,98807.16
2022-12-01T08:26:22.333Z,98797.78
2022-12-01T08:28:49.809Z,98802.66
2022-12-01T08:31:26.472Z,98803.81
2022-12-01T08:33:54.168Z,98807.41
2022-12-01T08:36:22.076Z,98800.25
2022-12-01T08:38:51.944Z,98809.00
2022-12-01T08:41:18.862Z,98817.34
2022-12-01T08:44:01.564Z,98803.66
2022-12-01T08:46:29.557Z,98804.66
2022-12-01T08:48:58.493Z,98801.16
2022-12-01T08:51:26.080Z,98800.13
2022-12-01T08:53:53.263Z,98795.44
2022-12-01T08:56:24.318Z,98800.19
2022-12-01T08:58:51.774Z,98801.50
2022-12-01T09:01:19.180Z,98801.13
2022-12-01T09:03:46.577Z,98793.84
2022-12-01T09:06:21.917Z,98801.56
2022-12-01T09:08:48.976Z,98798.19
2022-12-01T09:11:18.355Z,98802.19
2022-12-01T09:13:51.418Z,98811.78
2022-12-01T09:16:21.335Z,98807.56
2022-12-01T09:18:48.594Z,98809.25
2022-12-01T09:21:24.271Z,98806.31
2022-12-01T09:23:51.473Z,98815.03
2022-12-01T09:26:19.917Z,98814.28
2022-12-01T09:28:48.482Z,98810.31
2022-12-01T09:31:17.076Z,98807.06
2022-12-01T09:33:44.652Z,98808.94
2022-12-01T09:36:11.363Z,98803.97
2022-12-01T09:38:38.627Z,98810.16
2022-12-01T09:41:09.199Z,98801.03
2022-12-01T09:43:45.752Z,98803.44
2022-12-01T09:46:18.618Z,98808.22
2022-12-01T09:48:47.252Z,98800.66
2022-12-01T09:51:15.786Z,98809.00
2022-12-01T09:53:44.485Z,98806.34
2022-12-01T09:56:22.227Z,98798.78
2022-12-01T09:58:59.588Z,98804.31
2022-12-01T10:01:37.357Z,98811.81
2022-12-01T10:04:17.463Z,98809.19
2022-12-01T10:06:56.026Z,98800.50
2022-12-01T10:09:52.100Z,98800.75
2022-12-01T10:12:23.833Z,98811.38
2022-12-01T10:14:50.902Z,98791.91
2022-12-01T10:17:51.729Z,98802.66
2022-12-01T10:20:48.978Z,98802.13
2022-12-01T10:23:33.891Z,98800.69
2022-12-01T10:26:20.708Z,98790.28
2022-12-01T10:29:05.716Z,98790.75
2022-12-01T10:31:38.665Z,98784.44
2022-12-01T10:34:16.428Z,98773.22
2022-12-01T10:36:44.828Z,98777.69
2022-12-01T10:39:26.827Z,98776.06
2022-12-01T10:41:59.944Z,98762.00
2022-12-01T10:44:29.243Z,98766.69
2022-12-01T10:46:56.685Z,98765.00
2022-12-01T10:49:41.241Z,98765.84
2022-12-01T10:52:39.952Z,98769.16
2022-12-01T10:55:28.311Z,98766.75
2022-12-01T10:57:57.879Z,98760.75
2022-12-01T11:03:23.273Z,98767.72
2022-12-01T11:05:53.852Z,98763.84
2022-12-01T11:08:24.056Z,98761.59
2022-12-01T11:10:51.114Z,98756.97
2022-12-01T11:13:29.544Z,98757.91
2022-12-01T11:16:04.671Z,98757.81
2022-12-01T11:18:38.644Z,98743.66
2022-12-01T11:21:05.481Z,98748.06
2022-12-01T11:23:35.080Z,98753.16
2022-12-01T11:26:07.804Z,98747.03
2022-12-01T11:28:35.027Z,98750.31
2022-12-01T11:31:07.840Z,98739.56
2022-12-01T11:33:44.288Z,98742.88
2022-12-01T11:36:20.118Z,98731.66
2022-12-01T11:38:49.252Z,98730.16
2022-12-01T11:41:31.488Z,98727.94
2022-12-01T11:44:02.083Z,98737.66
2022-12-01T11:46:33.936Z,98730.16
2022-12-01T11:49:01.476Z,98727.53
2022-12-01T11:51:37.457Z,98730.41
2022-12-01T11:54:13.622Z,98728.91
2022-12-01T11:56:41.631Z,98731.09
2022-12-01T11:59:14.454Z,98730.28
2022-12-01T12:01:58.391Z,98737.56
2022-12-01T12:04:43.768Z,98737.69
2022-12-01T12:07:26.294Z,98736.66
2022-12-01T12:10:18.040Z,98737.59
2022-12-01T12:13:11.267Z,98734.88
2022-12-01T12:15:56.211Z,98734.56
2022-12-01T12:18:45.364Z,98735.28
2022-12-01T12:21:27.389Z,98731.50
2022-12-01T12:24:36.017Z,98721.19
2022-12-01T12:27:23.996Z,98722.16
2022-12-01T12:30:05.950Z,98721.63
2022-12-01T12:32:53.881Z,98711.97
2022-12-01T12:35:35.442Z,98725.94
2022-12-01T12:38:22.490Z,98722.28
2022-12-01T12:41:14.275Z,98714.88
2022-12-01T12:43:49.984Z,98717.75
2022-12-01T12:46:45.620Z,98712.16
2022-12-01T12:49:21.344Z,98715.19
2022-12-01T12:51:55.287Z,98713.53
2022-12-01T12:54:31.774Z,98722.50
2022-12-01T12:57:04.043Z,98720.38
2022-12-01T12:59:48.861Z,98718.94
2022-12-01T13:02:22.698Z,98719.78
2022-12-01T13:04:59.592Z,98726.66
2022-12-01T13:07:36.389Z,98725.78
2022-12-01T13:10:11.284Z,98718.03
2022-12-01T13:12:41.612Z,98720.25
2022-12-01T13:15:19.831Z,98717.69
2022-12-01T13:17:52.560Z,98717.28
2022-12-01T13:20:21.030Z,98720.75
2022-12-01T13:22:49.048Z,98712.00
2022-12-01T13:25:32.742Z,98714.47
2022-12-01T13:28:01.881Z,98712.56
2022-12-01T13:30:28.750Z,98714.94
2022-12-01T13:33:05.549Z,98711.59
2022-12-01T13:35:34.997Z,98716.63
2022-12-01T13:38:20.396Z,98720.19
2022-12-01T13:40:47.773Z,98713.78
2022-12-01T13:43:22.622Z,98719.34
2022-12-01T13:45:50.576Z,98720.38
2022-12-01T13:48:36.788Z,98718.59
2022-12-01T13:51:04.902Z,98709.19
2022-12-01T13:53:32.594Z,98728.56
2022-12-01T13:56:17.708Z,98723.94
2022-12-01T13:58:44.390Z,98728.81
2022-12-01T14:01:21.083Z,98733.72
2022-12-01T14:04:03.836Z,98732.75
2022-12-01T14:06:51.497Z,98729.81
2022-12-01T14:09:27.480Z,98724.34
2022-12-01T14:12:00.607Z,98717.84
2022-12-01T14:14:34.800Z,98710.66
2022-12-01T14:17:03.281Z,98712.28
2022-12-01T14:19:52.076Z,98715.31
2022-12-01T14:22:40.707Z,98720.59
2022-12-01T14:25:30.732Z,98713.63
2022-12-01T14:28:01.049Z,98711.56
2022-12-01T14:30:45.144Z,98721.72
2022-12-01T14:33:45.083Z,98712.88
2022-12-01T14:36:23.739Z,98715.06
2022-12-01T14:38:59.859Z,98715.81
2022-12-01T14:41:34.249Z,98713.25
2022-12-01T14:44:35.679Z,98716.06
2022-12-01T14:47:25.785Z,98709.72
2022-12-01T14:50:03.130Z,98715.69
2022-12-01T14:52:36.734Z,98720.19
2022-12-01T14:55:07.945Z,98712.84
2022-12-01T14:57:39.802Z,98703.88
2022-12-01T15:00:14.895Z,98711.50
2022-12-01T15:02:43.757Z,98713.53
2022-12-01T15:05:19.978Z,98710.59
2022-12-01T15:07:49.940Z,98716.19
2022-12-01T15:10:26.240Z,98707.28
2022-12-01T15:12:54.211Z,98711.75
2022-12-01T15:15:26.287Z,98717.84
2022-12-01T15:18:01.745Z,98717.41
2022-12-01T15:20:28.489Z,98722.50
2022-12-01T15:22:56.304Z,98722.41
2022-12-01T15:25:25.468Z,98720.09
2022-12-01T15:28:18.197Z,98725.22
2022-12-01T15:30:51.775Z,98722.31
2022-12-01T15:33:36.997Z,98723.34
2022-12-01T15:36:05.781Z,98729.94
2022-12-01T15:38:35.807Z,98729.47
2022-12-01T15:41:28.378Z,98729.56
2022-12-01T15:44:00.711Z,98727.00
2022-12-01T15:46:32.722Z,98727.78
2022-12-01T15:49:17.108Z,98734.91
2022-12-01T15:51:44.697Z,98724.81
2022-12-01T15:54:21.454Z,98721.91
2022-12-01T15:56:53.203Z,98721.81
2022-12-01T15:59:39.213Z,98720.06
2022-12-01T16:02:28.050Z,98719.81
2022-12-01T16:05:13.168Z,98726.09
2022-12-01T16:10:34.364Z,98723.03
2022-12-01T16:13:59.664Z,98724.56
2022-12-01T16:16:42.859Z,98721.66
2022-12-01T16:19:10.351Z,98723.97
2022-12-01T16:21:54.107Z,98722.00
2022-12-01T16:24:47.287Z,98721.00
2022-12-01T16:27:19.687Z,98715.22
2022-12-01T16:30:05.131Z,98713.44
2022-12-01T16:32:40.368Z,98721.53
2022-12-01T16:35:27.430Z,98719.03
2022-12-01T16:37:55.322Z,98719.75
2022-12-01T16:40:22.709Z,98714.78
2022-12-01T16:42:50.022Z,98717.59
2022-12-01T16:45:19.015Z,98716.63
2022-12-01T16:47:47.848Z,98716.13
2022-12-01T16:50:16.895Z,98707.13
2022-12-01T16:52:45.665Z,98704.56
2022-12-01T16:55:49.898Z,98706.56
2022-12-01T16:58:16.695Z,98702.38
2022-12-01T17:00:43.295Z,98712.59
2022-12-01T17:03:16.113Z,98691.41
2022-12-01T17:05:42.827Z,98707.13
2022-12-01T17:08:10.621Z,98704.94
2022-12-01T17:10:45.058Z,98708.31
2022-12-01T17:13:12.756Z,98709.25
2022-12-01T17:15:43.997Z,98705.84
2022-12-01T17:18:12.305Z,98699.22
2022-12-01T17:20:39.563Z,98704.50
2022-12-01T17:23:06.428Z,98706.28
2022-12-01T17:25:33.632Z,98716.66
2022-12-01T17:28:01.229Z,98718.75
2022-12-01T17:30:27.961Z,98715.56
2022-12-01T17:32:54.506Z,98725.69
2022-12-01T17:35:21.454Z,98723.63
2022-12-01T17:37:48.023Z,98725.66
2022-12-01T17:40:14.881Z,98719.88
2022-12-01T17:42:45.556Z,98730.28
2022-12-01T17:45:17.503Z,98722.19
2022-12-01T17:47:44.721Z,98727.59
2022-12-01T17:50:11.442Z,98732.03
2022-12-01T17:52:38.198Z,98736.94
2022-12-01T17:55:04.922Z,98750.44
2022-12-01T17:57:31.611Z,98743.88
2022-12-01T17:59:58.312Z,98743.66
2022-12-01T18:02:25.377Z,98748.16
2022-12-01T18:04:52.349Z,98748.28
2022-12-01T18:07:19.323Z,98749.91
2022-12-01T18:09:46.115Z,98747.97
2022-12-01T18:12:12.668Z,98760.50
2022-12-01T18:14:39.392Z,98747.16
2022-12-01T18:17:06.093Z,98757.84
2022-12-01T18:19:33.094Z,98759.13
2022-12-01T18:21:59.720Z,98748.47
2022-12-01T18:24:26.355Z,98741.03
2022-12-01T18:26:54.585Z,98750.56
2022-12-01T18:29:26.557Z,98752.97
2022-12-01T18:31:58.140Z,98750.91
2022-12-01T18:34:26.570Z,98754.59
2022-12-01T18:36:53.372Z,98751.41
2022-12-01T18:39:20.071Z,98746.84
2022-12-01T18:41:46.931Z,98747.44
2022-12-01T18:44:13.935Z,98737.31
2022-12-01T18:46:41.074Z,98737.66
2022-12-01T18:49:11.721Z,98737.88
2022-12-01T18:51:39.140Z,98738.16
2022-12-01T18:54:07.687Z,98742.53
2022-12-01T18:56:34.751Z,98732.41
2022-12-01T18:59:06.775Z,98744.94
2022-12-01T19:01:39.936Z,98739.78
2022-12-01T19:04:08.675Z,98747.00
2022-12-01T19:06:37.211Z,98753.19
2022-12-01T19:09:06.591Z,98752.81
2022-12-01T19:11:33.647Z,98755.44
2022-12-01T19:14:00.362Z,98754.34
2022-12-01T19:16:27.447Z,98759.34
2022-12-01T19:19:03.523Z,98755.69
2022-12-01T19:21:31.909Z,98752.06
2022-12-01T19:23:58.535Z,98742.53
2022-12-01T19:26:26.109Z,98742.47
2022-12-01T19:28:53.223Z,98737.22
2022-12-01T19:31:24.755Z,98733.09
2022-12-01T19:33:55.240Z,98735.31
2022-12-01T19:36:27.299Z,98736.16
2022-12-01T19:38:57.504Z,98735.25
2022-12-01T19:41:25.687Z,98729.63
2022-12-01T19:43:52.942Z,98731.19
2022-12-01T19:46:22.488Z,98735.09
2022-12-01T19:48:56.271Z,98738.41
2022-12-01T19:51:26.247Z,98731.13
2022-12-01T19:53:54.227Z,98728.56
2022-12-01T19:56:22.611Z,98723.03
2022-12-01T19:58:49.680Z,98712.94
2022-12-01T20:01:18.393Z,98717.41
2022-12-01T20:03:47.727Z,98718.78
2022-12-01T20:06:18.820Z,98729.50
2022-12-01T20:08:46.257Z,98736.84
2022-12-01T20:11:14.526Z,98741.94
2022-12-01T20:13:43.235Z,98749.66
2022-12-01T20:16:16.138Z,98746.66
2022-12-01T20:18:43.073Z,98746.38
2022-12-01T20:21:22.751Z,98742.69
2022-12-01T20:23:57.739Z,98747.44
2022-12-01T20:26:30.381Z,98749.88
2022-12-01T20:29:10.117Z,98744.13
2022-12-01T20:31:38.045Z,98741.59
2022-12-01T20:34:12.209Z,98734.31
2022-12-01T20:36:39.165Z,98734.16
2022-12-01T20:39:06.265Z,98735.75
2022-12-01T20:41:33.258Z,98742.50
2022-12-01T20:44:06.738Z,98737.56
2022-12-01T20:46:34.737Z,98736.38
2022-12-01T20:49:01.647Z,98736.31
2022-12-01T20:51:28.411Z,98741.34
2022-12-01T20:54:26.067Z,98740.59
2022-12-01T20:56:42.135Z,98744.28
2022-12-01T20:59:09.368Z,98732.31
2022-12-01T21:01:36.537Z,98728.75
2022-12-01T21:04:03.406Z,98727.34
2022-12-01T21:06:30.742Z,98728.50
2022-12-01T21:08:58.103Z,98740.59
2022-12-01T21:11:47.408Z,98747.09
2022-12-01T21:14:18.595Z,98749.25
2022-12-01T21:16:49.418Z,98746.09
2022-12-01T21:19:49.969Z,98748.78
2022-12-01T21:22:16.703Z,98745.00
2022-12-01T21:24:48.712Z,98746.16
2022-12-01T21:27:17.063Z,98747.91
2022-12-01T21:29:49.058Z,98750.19
2022-12-01T21:32:26.795Z,98747.66
2022-12-01T21:34:56.163Z,98751.00
2022-12-01T21:37:25.396Z,98743.75
2022-12-01T21:39:53.311Z,98754.03
2022-12-01T21:42:24.914Z,98750.16
2022-12-01T21:44:52.001Z,98747.84
2022-12-01T21:47:21.674Z,98741.25
2022-12-01T21:49:54.336Z,98740.59
2022-12-01T21:52:30.136Z,98728.13
2022-12-01T21:55:17.310Z,98731.78
2022-12-01T21:57:49.838Z,98724.44
2022-12-01T22:00:19.654Z,98723.19
2022-12-01T22:02:52.363Z,98716.91
2022-12-01T22:05:41.881Z,98716.28
2022-12-01T22:08:14.539Z,98723.72
2022-12-01T22:10:58.575Z,98714.88
2022-12-01T22:13:29.749Z,98710.19
2022-12-01T22:15:57.400Z,98707.34
2022-12-01T22:18:39.271Z,98706.28
2022-12-01T22:21:24.665Z,98703.66
2022-12-01T22:24:01.126Z,98704.63
2022-12-01T22:26:27.976Z,98695.69
2022-12-01T22:28:58.149Z,98704.09
2022-12-01T22:31:26.422Z,98710.06
2022-12-01T22:34:02.828Z,98699.38
2022-12-01T22:36:33.347Z,98697.63
2022-12-01T22:39:00.975Z,98689.75
2022-12-01T22:41:28.780Z,98719.31
2022-12-01T22:43:56.895Z,98721.09
2022-12-01T22:46:31.649Z,98711.84
2022-12-01T22:48:59.754Z,98717.22
2022-12-01T22:51:38.125Z,98718.00
2022-12-01T22:54:24.758Z,98707.56
2022-12-01T22:57:22.799Z,98702.09
2022-12-01T22:59:50.350Z,98691.31
2022-12-01T23:02:21.516Z,98689.03
2022-12-01T23:04:50.214Z,98688.25
2022-12-01T23:07:29.205Z,98690.16
2022-12-01T23:10:01.209Z,98675.97
2022-12-01T23:12:30.754Z,98678.44
2022-12-01T23:15:07.070Z,98669.47
2022-12-01T23:17:43.422Z,98651.28
2022-12-01T23:20:10.357Z,98649.81
2022-12-01T23:22:38.490Z,98658.03
2022-12-01T23:25:16.814Z,98650.31
2022-12-01T23:27:45.091Z,98662.28
2022-12-01T23:30:13.097Z,98662.28
2022-12-01T23:32:42.452Z,98673.13
2022-12-01T23:35:15.644Z,98684.78
2022-12-01T23:37:44.790Z,98681.69
2022-12-01T23:40:27.726Z,98685.56
2022-12-01T23:42:54.807Z,98696.72
2022-12-01T23:45:25.147Z,98681.00
2022-12-01T23:47:54.486Z,98684.88
2022-12-01T23:50:26.517Z,98685.31
2022-12-01T23:52:53.986Z,98670.66
2022-12-01T23:55:26.030Z,98676.34
2022-12-01T23:57:53.118Z,98672.34
